createdAt,value
2016-12-15T00:01:55.061Z,1025.2
2016-12-15T00:02:55.078Z,1025.19
2016-12-15T00:03:55.094Z,1025.21
2016-12-15T00:04:55.110Z,1025.21
2016-12-15T00:05:55.127Z,1025.19
2016-12-15T00:06:55.145Z,1025.23
2016-12-15T00:07:55.161Z,1025.23
2016-12-15T00:08:55.177Z,1025.24
2016-12-15T00:09:55.195Z,1025.24
2016-12-15T00:10:55.211Z,1025.24
2016-12-15T00:11:55.227Z,1025.3
2016-12-15T00:12:55.244Z,1025.28
2016-12-15T00:13:55.261Z,1025.29
2016-12-15T00:14:55.277Z,1025.3
2016-12-15T00:15:55.294Z,1025.23
2016-12-15T00:17:55.328Z,1025.21
2016-12-15T00:18:55.344Z,1025.25
2016-12-15T00:19:55.361Z,1025.2
2016-12-15T00:20:55.377Z,1025.25
2016-12-15T00:21:55.393Z,1025.24
2016-12-15T00:22:55.411Z,1025.23
2016-12-15T00:23:55.428Z,1025.23
2016-12-15T00:24:55.444Z,1025.25
2016-12-15T00:25:55.461Z,1025.24
2016-12-15T00:26:55.477Z,1025.23
2016-12-15T00:27:55.494Z,1025.19
2016-12-15T00:28:55.511Z,1025.23
2016-12-15T00:29:55.527Z,1025.25
2016-12-15T00:30:55.544Z,1025.24
2016-12-15T00:31:55.561Z,1025.28
2016-12-15T00:33:55.594Z,1025.29
2016-12-15T00:34:55.612Z,1025.22
2016-12-15T00:35:55.628Z,1025.26
2016-12-15T00:36:55.644Z,1025.24
2016-12-15T00:37:55.661Z,1025.21
2016-12-15T00:38:55.728Z,1025.16
2016-12-15T00:39:55.695Z,1025.17
2016-12-15T00:40:55.711Z,1025.16
2016-12-15T00:41:55.728Z,1025.14
2016-12-15T00:42:55.744Z,1025.14
2016-12-15T00:43:55.760Z,1025.11
2016-12-15T00:44:55.777Z,1025.1
2016-12-15T00:45:55.794Z,1025.1
2016-12-15T00:46:55.811Z,1025.1
2016-12-15T00:47:55.827Z,1025.11
2016-12-15T00:49:55.861Z,1025.15
2016-12-15T00:50:55.878Z,1025.14
2016-12-15T00:51:55.894Z,1025.15
2016-12-15T00:52:55.911Z,1025.13
2016-12-15T00:53:55.928Z,1025.1
2016-12-15T00:54:55.944Z,1025.13
2016-12-15T00:55:55.961Z,1025.1
2016-12-15T00:56:55.978Z,1025.09
2016-12-15T00:57:55.995Z,1025.09
2016-12-15T00:58:56.011Z,1025.1
2016-12-15T00:59:56.027Z,1025.1
2016-12-15T01:00:56.045Z,1025.12
2016-12-15T01:01:56.063Z,1025.1
2016-12-15T01:02:56.079Z,1025.11
2016-12-15T01:04:56.113Z,1025.15
2016-12-15T01:05:56.129Z,1025.19
2016-12-15T01:06:56.145Z,1025.18
2016-12-15T01:07:56.162Z,1025.18
2016-12-15T01:08:56.180Z,1025.17
2016-12-15T01:09:56.196Z,1025.18
2016-12-15T01:10:56.212Z,1025.2
2016-12-15T01:11:56.229Z,1025.18
2016-12-15T01:12:56.246Z,1025.19
2016-12-15T01:13:56.264Z,1025.19
2016-12-15T01:14:56.279Z,1025.18
2016-12-15T01:15:56.296Z,1025.18
2016-12-15T01:16:56.312Z,1025.21
2016-12-15T01:17:56.329Z,1025.21
2016-12-15T01:18:56.346Z,1025.23
2016-12-15T01:19:56.363Z,1025.23
2016-12-15T01:20:56.379Z,1025.21
2016-12-15T01:21:56.396Z,1025.19
2016-12-15T01:22:56.413Z,1025.22
2016-12-15T01:23:56.429Z,1025.24
2016-12-15T01:24:56.446Z,1025.24
2016-12-15T01:25:56.463Z,1025.27
2016-12-15T01:26:56.480Z,1025.28
2016-12-15T01:27:56.497Z,1025.28
2016-12-15T01:28:56.513Z,1025.24
2016-12-15T01:29:56.530Z,1025.2
2016-12-15T01:30:56.547Z,1025.21
2016-12-15T01:31:56.563Z,1025.24
2016-12-15T01:32:56.580Z,1025.23
2016-12-15T01:33:56.597Z,1025.28
2016-12-15T01:34:56.613Z,1025.26
2016-12-15T01:36:56.647Z,1025.32
2016-12-15T01:37:56.664Z,1025.3
2016-12-15T01:38:56.680Z,1025.35
2016-12-15T01:39:56.697Z,1025.39
2016-12-15T01:40:56.714Z,1025.39
2016-12-15T01:41:56.731Z,1025.4
2016-12-15T01:42:56.752Z,1025.39
2016-12-15T01:43:56.764Z,1025.37
2016-12-15T01:44:56.781Z,1025.39
2016-12-15T01:45:56.796Z,1025.38
2016-12-15T01:46:56.814Z,1025.42
2016-12-15T01:47:56.830Z,1025.44
2016-12-15T01:48:56.847Z,1025.44
2016-12-15T01:49:56.863Z,1025.43
2016-12-15T01:50:56.880Z,1025.47
2016-12-15T01:52:56.914Z,1025.52
2016-12-15T01:53:56.930Z,1025.51
2016-12-15T01:54:56.947Z,1025.5
2016-12-15T01:55:56.964Z,1025.52
2016-12-15T01:56:56.979Z,1025.51
2016-12-15T01:57:56.996Z,1025.52
2016-12-15T01:58:57.013Z,1025.52
2016-12-15T01:59:57.081Z,1025.52
2016-12-15T02:00:57.046Z,1025.52
2016-12-15T02:01:57.063Z,1025.56
2016-12-15T02:02:57.080Z,1025.51
2016-12-15T02:03:57.097Z,1025.56
2016-12-15T02:04:57.113Z,1025.57
2016-12-15T02:05:57.130Z,1025.59
2016-12-15T02:06:57.147Z,1025.6
2016-12-15T02:08:57.180Z,1025.62
2016-12-15T02:09:57.197Z,1025.65
2016-12-15T02:10:57.214Z,1025.62
2016-12-15T02:11:57.231Z,1025.64
2016-12-15T02:12:57.247Z,1025.63
2016-12-15T02:13:57.264Z,1025.65
2016-12-15T02:14:57.281Z,1025.66
2016-12-15T02:15:57.297Z,1025.67
2016-12-15T02:16:57.364Z,1025.68
2016-12-15T02:17:57.331Z,1025.68
2016-12-15T02:18:57.347Z,1025.7
2016-12-15T02:19:57.364Z,1025.67
2016-12-15T02:20:57.380Z,1025.67
2016-12-15T02:21:57.400Z,1025.67
2016-12-15T02:22:57.414Z,1025.65
2016-12-15T02:24:57.447Z,1025.66
2016-12-15T02:25:57.464Z,1025.67
2016-12-15T02:26:57.480Z,1025.7
2016-12-15T02:27:57.497Z,1025.71
2016-12-15T02:28:57.514Z,1025.64
2016-12-15T02:29:57.530Z,1025.68
2016-12-15T02:30:57.547Z,1025.79
2016-12-15T02:31:57.564Z,1025.83
2016-12-15T02:32:57.581Z,1025.81
2016-12-15T02:33:57.597Z,1025.83
2016-12-15T02:34:57.614Z,1025.82
2016-12-15T02:35:57.631Z,1025.89
2016-12-15T02:36:57.648Z,1025.87
2016-12-15T02:37:57.665Z,1025.84
2016-12-15T02:39:57.699Z,1025.82
2016-12-15T02:40:57.715Z,1025.79
2016-12-15T02:41:57.732Z,1025.78
2016-12-15T02:42:57.749Z,1025.8
2016-12-15T02:43:57.765Z,1025.79
2016-12-15T02:44:57.781Z,1025.82
2016-12-15T02:45:57.798Z,1025.8
2016-12-15T02:46:57.816Z,1025.82
2016-12-15T02:47:57.832Z,1025.84
2016-12-15T02:48:58.149Z,1025.82
2016-12-15T02:49:57.865Z,1025.86
2016-12-15T02:50:57.882Z,1025.87
2016-12-15T02:51:57.898Z,1025.86
2016-12-15T02:52:57.915Z,1025.87
2016-12-15T02:53:57.932Z,1025.87
2016-12-15T02:54:57.949Z,1025.87
2016-12-15T02:55:57.967Z,1025.92
2016-12-15T02:56:57.982Z,1025.92
2016-12-15T02:57:57.999Z,1025.9
2016-12-15T02:58:58.015Z,1025.98
2016-12-15T02:59:58.032Z,1025.97
2016-12-15T03:00:58.049Z,1025.96
2016-12-15T03:01:58.066Z,1025.92
2016-12-15T03:02:58.082Z,1025.95
2016-12-15T03:03:58.099Z,1025.93
2016-12-15T03:04:58.119Z,1025.92
2016-12-15T03:05:58.133Z,1025.95
2016-12-15T03:06:58.149Z,1025.91
2016-12-15T03:07:58.169Z,1025.91
2016-12-15T03:08:58.183Z,1025.92
2016-12-15T03:09:58.199Z,1025.94
2016-12-15T03:11:58.233Z,1025.93
2016-12-15T03:12:58.250Z,1025.97
2016-12-15T03:13:58.266Z,1025.94
2016-12-15T03:14:58.283Z,1025.98
2016-12-15T03:15:58.300Z,1025.94
2016-12-15T03:16:58.317Z,1025.96
2016-12-15T03:17:58.333Z,1025.98
2016-12-15T03:18:58.350Z,1025.96
2016-12-15T03:19:58.367Z,1025.98
2016-12-15T03:20:58.383Z,1025.95
2016-12-15T03:21:58.400Z,1025.93
2016-12-15T03:22:58.417Z,1025.99
2016-12-15T03:23:58.434Z,1026
2016-12-15T03:24:58.453Z,1026
2016-12-15T03:25:58.467Z,1025.99
2016-12-15T03:27:58.502Z,1026.04
2016-12-15T03:28:58.517Z,1026.02
2016-12-15T03:29:58.535Z,1026.02
2016-12-15T03:30:58.551Z,1026.04
2016-12-15T03:31:58.567Z,1026.03
2016-12-15T03:32:58.585Z,1026.02
2016-12-15T03:33:58.602Z,1026.05
2016-12-15T03:34:58.619Z,1026.05
2016-12-15T03:35:58.636Z,1026.11
2016-12-15T03:36:58.652Z,1026.12
2016-12-15T03:37:58.669Z,1026.12
2016-12-15T03:38:58.686Z,1026.15
2016-12-15T03:39:58.702Z,1026.21
2016-12-15T03:40:58.719Z,1026.22
2016-12-15T03:41:58.736Z,1026.24
2016-12-15T03:43:58.819Z,1026.19
2016-12-15T03:44:58.786Z,1026.2
2016-12-15T03:45:58.803Z,1026.21
2016-12-15T03:46:58.819Z,1026.18
2016-12-15T03:47:58.836Z,1026.23
2016-12-15T03:48:58.853Z,1026.17
2016-12-15T03:49:58.870Z,1026.21
2016-12-15T03:50:58.886Z,1026.19
2016-12-15T03:51:58.903Z,1026.19
2016-12-15T03:52:58.920Z,1026.19
2016-12-15T03:53:58.936Z,1026.17
2016-12-15T03:54:58.953Z,1026.16
2016-12-15T03:55:58.970Z,1026.17
2016-12-15T03:56:58.987Z,1026.2
2016-12-15T03:57:59.003Z,1026.18
2016-12-15T03:59:59.037Z,1026.13
2016-12-15T04:00:59.055Z,1026.12
2016-12-15T04:01:59.070Z,1026.1
2016-12-15T04:02:59.087Z,1026.06
2016-12-15T04:03:59.104Z,1026.07
2016-12-15T04:04:59.120Z,1026.1
2016-12-15T04:05:59.137Z,1026.12
2016-12-15T04:06:59.154Z,1026.1
2016-12-15T04:07:59.172Z,1026.13
2016-12-15T04:08:59.187Z,1026.1
2016-12-15T04:09:59.205Z,1026.07
2016-12-15T04:10:59.226Z,1026.05
2016-12-15T04:11:59.238Z,1026.08
2016-12-15T04:12:59.258Z,1026.06
2016-12-15T04:14:59.290Z,1026.05
2016-12-15T04:15:59.306Z,1026.02
2016-12-15T04:16:59.323Z,1026.07
2016-12-15T04:17:59.341Z,1026.04
2016-12-15T04:18:59.357Z,1026.03
2016-12-15T04:19:59.377Z,1026.06
2016-12-15T04:20:59.390Z,1026.03
2016-12-15T04:21:59.407Z,1026.06
2016-12-15T04:22:59.424Z,1026.06
2016-12-15T04:23:59.444Z,1026.05
2016-12-15T04:24:59.457Z,1026.06
2016-12-15T04:25:59.475Z,1026.07
2016-12-15T04:26:59.491Z,1026.06
2016-12-15T04:27:59.508Z,1026.09
2016-12-15T04:28:59.525Z,1026.09
2016-12-15T04:29:59.542Z,1026.11
2016-12-15T04:30:59.558Z,1026.11
2016-12-15T04:31:59.575Z,1026.12
2016-12-15T04:32:59.594Z,1026.09
2016-12-15T04:33:59.608Z,1026.05
2016-12-15T04:34:59.626Z,1026.08
2016-12-15T04:35:59.643Z,1026.06
2016-12-15T04:36:59.660Z,1026.06
2016-12-15T04:37:59.675Z,1026.03
2016-12-15T04:38:59.693Z,1026.03
2016-12-15T04:39:59.710Z,1026.03
2016-12-15T04:40:59.727Z,1026.07
2016-12-15T04:41:59.743Z,1026.1
2016-12-15T04:42:59.760Z,1026.09
2016-12-15T04:43:59.782Z,1026.13
2016-12-15T04:44:59.794Z,1026.14
2016-12-15T04:46:59.828Z,1026.13
2016-12-15T04:47:59.845Z,1026.16
2016-12-15T04:48:59.862Z,1026.15
2016-12-15T04:49:59.878Z,1026.14
2016-12-15T04:50:59.895Z,1026.15
2016-12-15T04:51:59.912Z,1026.13
2016-12-15T04:52:59.929Z,1026.14
2016-12-15T04:53:59.945Z,1026.13
2016-12-15T04:54:59.962Z,1026.18
2016-12-15T04:55:59.979Z,1026.21
2016-12-15T04:56:59.996Z,1026.21
2016-12-15T04:58:00.063Z,1026.2
2016-12-15T04:59:00.030Z,1026.22
2016-12-15T05:00:00.046Z,1026.26
2016-12-15T05:01:00.063Z,1026.24
2016-12-15T05:03:00.097Z,1026.25
2016-12-15T05:04:00.113Z,1026.23
2016-12-15T05:05:00.130Z,1026.25
2016-12-15T05:06:00.147Z,1026.25
2016-12-15T05:07:00.163Z,1026.28
2016-12-15T05:08:00.181Z,1026.3
2016-12-15T05:09:00.198Z,1026.29
2016-12-15T05:10:00.215Z,1026.28
2016-12-15T05:11:00.232Z,1026.29
2016-12-15T05:12:00.247Z,1026.29
2016-12-15T05:13:00.265Z,1026.32
2016-12-15T05:14:00.282Z,1026.37
2016-12-15T05:15:00.298Z,1026.36
2016-12-15T05:16:00.315Z,1026.37
2016-12-15T05:17:00.333Z,1026.35
2016-12-15T05:19:00.366Z,1026.38
2016-12-15T05:20:00.383Z,1026.38
2016-12-15T05:21:00.400Z,1026.39
2016-12-15T05:22:00.416Z,1026.41
2016-12-15T05:23:00.433Z,1026.41
2016-12-15T05:24:00.450Z,1026.38
2016-12-15T05:25:00.467Z,1026.36
2016-12-15T05:26:00.484Z,1026.37
2016-12-15T05:27:00.501Z,1026.35
2016-12-15T05:28:00.518Z,1026.39
2016-12-15T05:29:00.534Z,1026.43
2016-12-15T05:30:00.551Z,1026.42
2016-12-15T05:31:00.568Z,1026.38
2016-12-15T05:32:00.585Z,1026.44
2016-12-15T05:33:00.601Z,1026.43
2016-12-15T05:35:00.635Z,1026.41
2016-12-15T05:36:00.653Z,1026.42
2016-12-15T05:37:00.669Z,1026.39
2016-12-15T05:38:00.686Z,1026.41
2016-12-15T05:39:00.703Z,1026.41
2016-12-15T05:40:00.719Z,1026.46
2016-12-15T05:41:00.736Z,1026.45
2016-12-15T05:42:00.753Z,1026.46
2016-12-15T05:43:00.770Z,1026.46
2016-12-15T05:44:00.786Z,1026.48
2016-12-15T05:45:00.803Z,1026.49
2016-12-15T05:46:00.820Z,1026.49
2016-12-15T05:47:00.837Z,1026.51
2016-12-15T05:48:00.855Z,1026.54
2016-12-15T05:50:00.888Z,1026.53
2016-12-15T05:51:00.905Z,1026.61
2016-12-15T05:52:00.922Z,1026.56
2016-12-15T05:53:00.939Z,1026.62
2016-12-15T05:54:00.959Z,1026.64
2016-12-15T05:55:00.972Z,1026.63
2016-12-15T05:56:00.989Z,1026.65
2016-12-15T05:57:01.006Z,1026.67
2016-12-15T05:58:01.022Z,1026.63
2016-12-15T05:59:01.040Z,1026.59
2016-12-15T06:00:01.056Z,1026.67
2016-12-15T06:01:01.075Z,1026.63
2016-12-15T06:02:01.090Z,1026.64
2016-12-15T06:03:01.107Z,1026.64
2016-12-15T06:04:01.124Z,1026.64
2016-12-15T06:05:01.141Z,1026.64
2016-12-15T06:06:01.158Z,1026.66
2016-12-15T06:07:01.174Z,1026.65
2016-12-15T06:08:01.191Z,1026.68
2016-12-15T06:09:01.207Z,1026.65
2016-12-15T06:10:01.224Z,1026.68
2016-12-15T06:11:01.241Z,1026.71
2016-12-15T06:12:01.258Z,1026.71
2016-12-15T06:13:01.275Z,1026.69
2016-12-15T06:14:01.292Z,1026.65
2016-12-15T06:15:01.309Z,1026.65
2016-12-15T06:16:01.326Z,1026.66
2016-12-15T06:17:01.342Z,1026.64
2016-12-15T06:18:01.359Z,1026.62
2016-12-15T06:19:01.376Z,1026.61
2016-12-15T06:20:01.392Z,1026.58
2016-12-15T06:22:01.427Z,1026.62
2016-12-15T06:23:01.443Z,1026.65
2016-12-15T06:24:01.460Z,1026.71
2016-12-15T06:25:01.476Z,1026.74
2016-12-15T06:26:01.493Z,1026.73
2016-12-15T06:27:01.510Z,1026.74
2016-12-15T06:28:01.526Z,1026.77
2016-12-15T06:29:01.544Z,1026.77
2016-12-15T06:30:01.560Z,1026.77
2016-12-15T06:31:01.576Z,1026.76
2016-12-15T06:32:01.593Z,1026.75
2016-12-15T06:33:01.610Z,1026.68
2016-12-15T06:34:01.626Z,1026.69
2016-12-15T06:35:01.643Z,1026.7
2016-12-15T06:36:01.660Z,1026.75
2016-12-15T06:38:01.694Z,1026.77
2016-12-15T06:39:01.710Z,1026.77
2016-12-15T06:40:01.726Z,1026.81
2016-12-15T06:41:01.744Z,1026.81
2016-12-15T06:42:01.760Z,1026.86
2016-12-15T06:43:01.776Z,1026.84
2016-12-15T06:44:01.794Z,1026.86
2016-12-15T06:45:01.810Z,1026.85
2016-12-15T06:46:01.827Z,1026.86
2016-12-15T06:47:01.843Z,1026.87
2016-12-15T06:48:01.860Z,1026.84
2016-12-15T06:49:01.878Z,1026.81
2016-12-15T06:50:01.893Z,1026.87
2016-12-15T06:51:01.910Z,1026.84
2016-12-15T06:52:01.928Z,1026.88
2016-12-15T06:54:01.960Z,1026.93
2016-12-15T06:55:01.977Z,1026.97
2016-12-15T06:56:01.994Z,1026.95
2016-12-15T06:57:02.010Z,1027.01
2016-12-15T06:58:02.027Z,1026.95
2016-12-15T06:59:02.044Z,1027.01
2016-12-15T07:00:02.061Z,1026.99
2016-12-15T07:01:02.077Z,1027.01
2016-12-15T07:02:02.094Z,1027
2016-12-15T07:03:02.111Z,1026.99
2016-12-15T07:04:02.127Z,1027
2016-12-15T07:05:02.144Z,1027.04
2016-12-15T07:06:02.160Z,1027.03
2016-12-15T07:07:02.178Z,1027.04
2016-12-15T07:08:02.193Z,1027.05
2016-12-15T07:10:02.227Z,1027.07
2016-12-15T07:11:02.244Z,1027.08
2016-12-15T07:12:02.260Z,1027.14
2016-12-15T07:13:02.278Z,1027.14
2016-12-15T07:14:02.295Z,1027.13
2016-12-15T07:15:02.310Z,1027.13
2016-12-15T07:16:02.328Z,1027.13
2016-12-15T07:17:02.345Z,1027.15
2016-12-15T07:18:02.362Z,1027.17
2016-12-15T07:19:02.378Z,1027.18
2016-12-15T07:20:02.395Z,1027.13
2016-12-15T07:21:02.412Z,1027.19
2016-12-15T07:22:02.430Z,1027.23
2016-12-15T07:23:02.447Z,1027.23
2016-12-15T07:25:02.481Z,1027.29
2016-12-15T07:26:02.497Z,1027.31
2016-12-15T07:27:02.530Z,1027.3
2016-12-15T07:28:02.531Z,1027.32
2016-12-15T07:29:02.548Z,1027.34
2016-12-15T07:30:02.564Z,1027.38
2016-12-15T07:31:02.581Z,1027.39
2016-12-15T07:32:02.599Z,1027.33
2016-12-15T07:33:02.615Z,1027.37
2016-12-15T07:34:02.633Z,1027.43
2016-12-15T07:35:02.649Z,1027.4
2016-12-15T07:36:02.666Z,1027.46
2016-12-15T07:37:02.682Z,1027.45
2016-12-15T07:38:02.699Z,1027.43
2016-12-15T07:39:02.716Z,1027.48
2016-12-15T07:40:02.734Z,1027.49
2016-12-15T07:41:02.750Z,1027.51
2016-12-15T07:42:02.767Z,1027.48
2016-12-15T07:43:02.784Z,1027.53
2016-12-15T07:44:02.800Z,1027.53
2016-12-15T07:45:02.817Z,1027.49
2016-12-15T07:46:02.834Z,1027.5
2016-12-15T07:47:02.851Z,1027.51
2016-12-15T07:48:02.867Z,1027.53
2016-12-15T07:49:02.885Z,1027.48
2016-12-15T07:50:02.901Z,1027.52
2016-12-15T07:51:02.919Z,1027.53
2016-12-15T07:52:02.935Z,1027.53
2016-12-15T07:53:02.952Z,1027.55
2016-12-15T07:54:02.970Z,1027.57
2016-12-15T07:55:02.986Z,1027.58
2016-12-15T07:57:03.020Z,1027.61
2016-12-15T07:58:03.037Z,1027.59
2016-12-15T07:59:03.054Z,1027.61
2016-12-15T08:00:03.071Z,1027.59
2016-12-15T08:01:03.088Z,1027.6
2016-12-15T08:02:03.105Z,1027.6
2016-12-15T08:03:03.124Z,1027.62
2016-12-15T08:04:03.139Z,1027.63
2016-12-15T08:05:03.156Z,1027.65
2016-12-15T08:06:03.172Z,1027.69
2016-12-15T08:07:03.190Z,1027.7
2016-12-15T08:08:03.207Z,1027.72
2016-12-15T08:09:03.224Z,1027.73
2016-12-15T08:10:03.240Z,1027.74
2016-12-15T08:11:03.259Z,1027.73
2016-12-15T08:13:03.292Z,1027.75
2016-12-15T08:14:03.309Z,1027.76
2016-12-15T08:15:03.326Z,1027.77
2016-12-15T08:16:03.343Z,1027.78
2016-12-15T08:17:03.360Z,1027.79
2016-12-15T08:18:03.377Z,1027.8
2016-12-15T08:19:03.394Z,1027.82
2016-12-15T08:20:03.412Z,1027.8
2016-12-15T08:21:03.428Z,1027.79
2016-12-15T08:22:03.445Z,1027.83
2016-12-15T08:23:03.463Z,1027.85
2016-12-15T08:24:03.480Z,1027.87
2016-12-15T08:25:03.496Z,1027.88
2016-12-15T08:26:03.514Z,1027.88
2016-12-15T08:27:03.531Z,1027.91
2016-12-15T08:29:03.565Z,1027.99
2016-12-15T08:30:03.582Z,1028.01
2016-12-15T08:31:03.600Z,1028.04
2016-12-15T08:32:03.616Z,1028.04
2016-12-15T08:33:03.633Z,1028.05
2016-12-15T08:34:03.651Z,1028.07
2016-12-15T08:35:03.668Z,1028.07
2016-12-15T08:36:03.684Z,1028.11
2016-12-15T08:37:03.701Z,1028.09
2016-12-15T08:38:03.719Z,1028.09
2016-12-15T08:39:03.735Z,1028.07
2016-12-15T08:40:03.753Z,1028.11
2016-12-15T08:41:03.825Z,1028.1
2016-12-15T08:42:03.788Z,1028.13
2016-12-15T08:43:03.804Z,1028.14
2016-12-15T08:45:03.839Z,1028.15
2016-12-15T08:46:03.856Z,1028.14
2016-12-15T08:47:03.873Z,1028.13
2016-12-15T08:48:03.890Z,1028.09
2016-12-15T08:49:03.908Z,1028.14
2016-12-15T08:50:03.925Z,1028.14
2016-12-15T08:51:03.942Z,1028.13
2016-12-15T08:52:03.959Z,1028.18
2016-12-15T08:53:03.977Z,1028.17
2016-12-15T08:54:03.993Z,1028.18
2016-12-15T08:55:04.011Z,1028.17
2016-12-15T08:56:04.028Z,1028.19
2016-12-15T08:57:04.046Z,1028.17
2016-12-15T08:58:04.063Z,1028.15
2016-12-15T09:00:04.098Z,1028.14
2016-12-15T09:01:04.114Z,1028.15
2016-12-15T09:02:04.132Z,1028.11
2016-12-15T09:03:04.150Z,1028.11
2016-12-15T09:04:04.167Z,1028.13
2016-12-15T09:05:04.183Z,1028.07
2016-12-15T09:06:04.201Z,1028.1
2016-12-15T09:07:04.219Z,1028.13
2016-12-15T09:08:04.235Z,1028.11
2016-12-15T09:09:04.253Z,1028.08
2016-12-15T09:10:04.270Z,1028.08
2016-12-15T09:11:04.287Z,1028.07
2016-12-15T09:12:04.304Z,1028.08
2016-12-15T09:13:04.322Z,1028.07
2016-12-15T09:14:04.339Z,1028.07
2016-12-15T09:15:04.357Z,1028.09
2016-12-15T09:16:04.373Z,1028.05
2016-12-15T09:17:04.390Z,1028.04
2016-12-15T09:18:04.410Z,1028.08
2016-12-15T09:19:04.425Z,1028.1
2016-12-15T09:20:04.444Z,1028.13
2016-12-15T09:21:04.460Z,1028.07
2016-12-15T09:22:04.478Z,1028.1
2016-12-15T09:23:04.544Z,1028.11
2016-12-15T09:24:04.512Z,1028.1
2016-12-15T09:25:04.530Z,1028.08
2016-12-15T09:26:04.547Z,1028.06
2016-12-15T09:27:04.564Z,1028.1
2016-12-15T09:28:04.582Z,1028.08
2016-12-15T09:29:04.601Z,1028.13
2016-12-15T09:30:04.616Z,1028.12
2016-12-15T09:32:04.652Z,1028.11
2016-12-15T09:33:04.669Z,1028.11
2016-12-15T09:34:04.687Z,1028.11
2016-12-15T09:35:04.704Z,1028.12
2016-12-15T09:36:04.722Z,1028.08
2016-12-15T09:37:04.739Z,1028.1
2016-12-15T09:38:04.756Z,1028.15
2016-12-15T09:39:04.774Z,1028.12
2016-12-15T09:40:04.792Z,1028.1
2016-12-15T09:41:04.809Z,1028.12
2016-12-15T09:42:04.827Z,1028.1
2016-12-15T09:43:04.844Z,1028.13
2016-12-15T09:44:04.862Z,1028.13
2016-12-15T09:45:04.879Z,1028.1
2016-12-15T09:46:04.897Z,1028.13
2016-12-15T09:48:04.932Z,1028.1
2016-12-15T09:49:04.950Z,1028.12
2016-12-15T09:50:04.967Z,1028.08
2016-12-15T09:51:04.985Z,1028.09
2016-12-15T09:52:05.003Z,1028.12
2016-12-15T09:53:05.020Z,1028.11
2016-12-15T09:54:05.038Z,1028.1
2016-12-15T09:55:05.056Z,1028.1
2016-12-15T09:56:05.073Z,1028.1
2016-12-15T09:57:05.090Z,1028.09
2016-12-15T09:58:05.109Z,1028.06
2016-12-15T09:59:05.127Z,1028.09
2016-12-15T10:00:05.144Z,1028.08
2016-12-15T10:01:05.162Z,1028.09
2016-12-15T10:02:05.179Z,1028.05
2016-12-15T10:04:05.264Z,1028.05
2016-12-15T10:05:05.233Z,1028.11
2016-12-15T10:06:05.252Z,1028.09
2016-12-15T10:07:05.268Z,1028.12
2016-12-15T10:08:05.286Z,1028.13
2016-12-15T10:09:05.304Z,1028.09
2016-12-15T10:10:05.322Z,1028.09
2016-12-15T10:11:05.339Z,1028.01
2016-12-15T10:12:05.357Z,1028.03
2016-12-15T10:13:05.375Z,1027.98
2016-12-15T10:14:05.392Z,1027.98
2016-12-15T10:15:05.410Z,1027.96
2016-12-15T10:16:05.429Z,1027.95
2016-12-15T10:17:05.446Z,1027.93
2016-12-15T10:18:05.465Z,1027.9
2016-12-15T10:20:05.500Z,1027.88
2016-12-15T10:21:05.518Z,1027.87
2016-12-15T10:22:05.535Z,1027.82
2016-12-15T10:23:05.553Z,1027.84
2016-12-15T10:24:05.572Z,1027.86
2016-12-15T10:25:05.588Z,1027.88
2016-12-15T10:26:05.606Z,1027.83
2016-12-15T10:27:05.624Z,1027.85
2016-12-15T10:28:05.642Z,1027.86
2016-12-15T10:29:05.659Z,1027.85
2016-12-15T10:30:05.677Z,1027.82
2016-12-15T10:31:05.695Z,1027.8
2016-12-15T10:32:05.717Z,1027.8
2016-12-15T10:33:05.732Z,1027.86
2016-12-15T10:35:05.768Z,1027.82
2016-12-15T10:36:05.785Z,1027.77
2016-12-15T10:37:05.803Z,1027.77
2016-12-15T10:38:05.821Z,1027.8
2016-12-15T10:39:05.840Z,1027.83
2016-12-15T10:40:05.857Z,1027.84
2016-12-15T10:41:05.875Z,1027.8
2016-12-15T10:42:05.893Z,1027.84
2016-12-15T10:43:05.910Z,1027.81
2016-12-15T10:44:05.928Z,1027.84
2016-12-15T10:45:05.946Z,1027.79
2016-12-15T10:46:05.968Z,1027.76
2016-12-15T10:47:05.982Z,1027.79
2016-12-15T10:48:06.000Z,1027.77
2016-12-15T10:49:06.018Z,1027.77
2016-12-15T10:50:06.036Z,1027.76
2016-12-15T10:51:06.053Z,1027.78
2016-12-15T10:52:06.071Z,1027.77
2016-12-15T10:53:06.390Z,1027.78
2016-12-15T10:54:06.107Z,1027.75
2016-12-15T10:55:06.125Z,1027.77
2016-12-15T10:56:06.143Z,1027.76
2016-12-15T10:57:06.162Z,1027.79
2016-12-15T10:58:06.179Z,1027.73
2016-12-15T10:59:06.197Z,1027.74
2016-12-15T11:00:06.215Z,1027.73
2016-12-15T11:01:06.233Z,1027.71
2016-12-15T11:02:06.250Z,1027.69
2016-12-15T11:03:06.269Z,1027.7
2016-12-15T11:04:06.287Z,1027.72
2016-12-15T11:05:06.304Z,1027.71
2016-12-15T11:07:06.341Z,1027.74
2016-12-15T11:08:06.360Z,1027.7
2016-12-15T11:09:06.376Z,1027.68
2016-12-15T11:10:06.394Z,1027.67
2016-12-15T11:11:06.413Z,1027.68
2016-12-15T11:12:06.481Z,1027.68
2016-12-15T11:13:06.448Z,1027.65
2016-12-15T11:14:06.466Z,1027.66
2016-12-15T11:15:06.485Z,1027.7
2016-12-15T11:16:06.502Z,1027.66
2016-12-15T11:17:06.520Z,1027.62
2016-12-15T11:18:06.538Z,1027.58
2016-12-15T11:19:06.558Z,1027.59
2016-12-15T11:20:06.574Z,1027.58
2016-12-15T11:21:06.592Z,1027.55
2016-12-15T11:23:06.628Z,1027.54
2016-12-15T11:24:06.645Z,1027.56
2016-12-15T11:25:06.664Z,1027.58
2016-12-15T11:26:06.682Z,1027.56
2016-12-15T11:27:06.699Z,1027.53
2016-12-15T11:28:06.717Z,1027.56
2016-12-15T11:29:06.735Z,1027.55
2016-12-15T11:30:06.754Z,1027.55
2016-12-15T11:31:06.770Z,1027.54
2016-12-15T11:32:06.788Z,1027.51
2016-12-15T11:33:06.807Z,1027.54
2016-12-15T11:34:06.825Z,1027.56
2016-12-15T11:35:06.842Z,1027.52
2016-12-15T11:36:06.860Z,1027.51
2016-12-15T11:37:06.878Z,1027.51
2016-12-15T11:39:06.913Z,1027.53
2016-12-15T11:40:06.931Z,1027.55
2016-12-15T11:41:06.949Z,1027.57
2016-12-15T11:42:06.966Z,1027.54
2016-12-15T11:43:06.984Z,1027.54
2016-12-15T11:44:07.002Z,1027.61
2016-12-15T11:45:07.020Z,1027.59
2016-12-15T11:46:07.038Z,1027.54
2016-12-15T11:47:07.056Z,1027.54
2016-12-15T11:48:07.074Z,1027.53
2016-12-15T11:49:07.091Z,1027.6
2016-12-15T11:50:07.109Z,1027.56
2016-12-15T11:51:07.127Z,1027.54
2016-12-15T11:52:07.145Z,1027.55
2016-12-15T11:53:07.162Z,1027.57
2016-12-15T11:55:07.198Z,1027.57
2016-12-15T11:56:07.216Z,1027.53
2016-12-15T11:57:07.233Z,1027.57
2016-12-15T11:58:07.250Z,1027.56
2016-12-15T11:59:07.268Z,1027.47
2016-12-15T12:00:07.285Z,1027.54
2016-12-15T12:01:07.303Z,1027.5
2016-12-15T12:02:07.321Z,1027.49
2016-12-15T12:03:07.339Z,1027.51
2016-12-15T12:04:07.356Z,1027.48
2016-12-15T12:05:07.373Z,1027.47
2016-12-15T12:06:07.391Z,1027.47
2016-12-15T12:07:07.408Z,1027.47
2016-12-15T12:08:07.426Z,1027.49
2016-12-15T12:10:07.462Z,1027.46
2016-12-15T12:11:07.479Z,1027.43
2016-12-15T12:12:07.496Z,1027.45
2016-12-15T12:13:07.514Z,1027.47
2016-12-15T12:14:07.532Z,1027.47
2016-12-15T12:15:07.564Z,1027.43
2016-12-15T12:16:07.571Z,1027.45
2016-12-15T12:17:07.585Z,1027.41
2016-12-15T12:18:07.601Z,1027.43
2016-12-15T12:19:07.619Z,1027.42
2016-12-15T12:20:07.637Z,1027.44
2016-12-15T12:21:07.655Z,1027.46
2016-12-15T12:22:07.671Z,1027.47
2016-12-15T12:23:07.689Z,1027.45
2016-12-15T12:24:07.707Z,1027.47
2016-12-15T12:25:07.726Z,1027.44
2016-12-15T12:26:07.742Z,1027.43
2016-12-15T12:27:07.759Z,1027.45
2016-12-15T12:28:07.780Z,1027.42
2016-12-15T12:29:07.794Z,1027.42
2016-12-15T12:30:07.812Z,1027.41
2016-12-15T12:31:07.830Z,1027.42
2016-12-15T12:32:07.851Z,1027.43
2016-12-15T12:33:07.865Z,1027.39
2016-12-15T12:34:07.883Z,1027.41
2016-12-15T12:35:07.901Z,1027.44
2016-12-15T12:36:07.919Z,1027.47
2016-12-15T12:37:07.936Z,1027.4
2016-12-15T12:38:07.954Z,1027.39
2016-12-15T12:39:07.972Z,1027.41
2016-12-15T12:40:07.990Z,1027.45
2016-12-15T12:42:08.027Z,1027.44
2016-12-15T12:43:08.042Z,1027.42
2016-12-15T12:44:08.060Z,1027.39
2016-12-15T12:45:08.077Z,1027.36
2016-12-15T12:46:08.095Z,1027.42
2016-12-15T12:47:08.112Z,1027.39
2016-12-15T12:48:08.129Z,1027.42
2016-12-15T12:49:08.147Z,1027.38
2016-12-15T12:50:08.165Z,1027.37